sensor_id;sensor_type;location;lat;lon;timestamp;P1;durP1;ratioP1;P2;durP2;ratioP2
36551;SDS011;22559;54.176;12.102;2024-03-25T00:01:59;6.93;;;4.33;;
36551;SDS011;22559;54.176;12.102;2024-03-25T00:04:25;6.80;;;4.77;;
36551;SDS011;22559;54.176;12.102;2024-03-25T00:06:51;9.83;;;5.33;;
36551;SDS011;22559;54.176;12.102;2024-03-25T00:09:18;9.60;;;4.67;;
36551;SDS011;22559;54.176;12.102;2024-03-25T00:11:43;12.33;;;5.53;;
36551;SDS011;22559;54.176;12.102;2024-03-25T00:14:09;9.13;;;5.17;;
36551;SDS011;22559;54.176;12.102;2024-03-25T00:16:35;8.43;;;5.13;;
36551;SDS011;22559;54.176;12.102;2024-03-25T00:19:02;6.83;;;5.10;;
36551;SDS011;22559;54.176;12.102;2024-03-25T00:21:27;8.57;;;5.17;;
36551;SDS011;22559;54.176;12.102;2024-03-25T00:23:53;11.83;;;5.43;;
36551;SDS011;22559;54.176;12.102;2024-03-25T00:26:21;8.63;;;5.27;;
36551;SDS011;22559;54.176;12.102;2024-03-25T00:28:48;7.57;;;4.90;;
36551;SDS011;22559;54.176;12.102;2024-03-25T00:31:13;8.97;;;4.97;;
36551;SDS011;22559;54.176;12.102;2024-03-25T00:33:39;7.20;;;4.47;;
36551;SDS011;22559;54.176;12.102;2024-03-25T00:36:05;8.80;;;4.67;;
36551;SDS011;22559;54.176;12.102;2024-03-25T00:38:31;7.00;;;5.07;;
36551;SDS011;22559;54.176;12.102;2024-03-25T00:40:56;5.67;;;4.47;;
36551;SDS011;22559;54.176;12.102;2024-03-25T00:43:22;9.03;;;5.17;;
36551;SDS011;22559;54.176;12.102;2024-03-25T00:45:48;7.03;;;5.03;;
36551;SDS011;22559;54.176;12.102;2024-03-25T00:48:14;9.50;;;5.50;;
36551;SDS011;22559;54.176;12.102;2024-03-25T00:50:40;10.93;;;5.67;;
36551;SDS011;22559;54.176;12.102;2024-03-25T00:53:05;10.23;;;6.27;;
36551;SDS011;22559;54.176;12.102;2024-03-25T00:55:32;9.87;;;5.80;;
36551;SDS011;22559;54.176;12.102;2024-03-25T00:58:00;11.93;;;6.37;;
36551;SDS011;22559;54.176;12.102;2024-03-25T01:00:29;11.63;;;6.93;;
36551;SDS011;22559;54.176;12.102;2024-03-25T01:02:55;12.63;;;7.70;;
36551;SDS011;22559;54.176;12.102;2024-03-25T01:05:20;11.57;;;7.23;;
36551;SDS011;22559;54.176;12.102;2024-03-25T01:07:46;14.17;;;7.27;;
36551;SDS011;22559;54.176;12.102;2024-03-25T01:10:12;13.37;;;7.77;;
36551;SDS011;22559;54.176;12.102;2024-03-25T01:12:37;14.23;;;8.53;;
36551;SDS011;22559;54.176;12.102;2024-03-25T01:15:03;14.70;;;8.37;;
36551;SDS011;22559;54.176;12.102;2024-03-25T01:17:30;15.40;;;8.47;;
36551;SDS011;22559;54.176;12.102;2024-03-25T01:19:56;13.23;;;7.80;;
36551;SDS011;22559;54.176;12.102;2024-03-25T01:22:21;16.47;;;8.97;;
36551;SDS011;22559;54.176;12.102;2024-03-25T01:24:47;18.13;;;8.57;;
36551;SDS011;22559;54.176;12.102;2024-03-25T01:27:13;15.43;;;7.67;;
36551;SDS011;22559;54.176;12.102;2024-03-25T01:29:38;17.70;;;8.23;;
36551;SDS011;22559;54.176;12.102;2024-03-25T01:32:04;13.47;;;7.33;;
36551;SDS011;22559;54.176;12.102;2024-03-25T01:34:30;14.87;;;7.33;;
36551;SDS011;22559;54.176;12.102;2024-03-25T01:36:56;12.03;;;6.93;;
36551;SDS011;22559;54.176;12.102;2024-03-25T01:39:22;12.80;;;6.90;;
36551;SDS011;22559;54.176;12.102;2024-03-25T01:41:49;12.77;;;6.07;;
36551;SDS011;22559;54.176;12.102;2024-03-25T01:44:15;9.80;;;5.20;;
36551;SDS011;22559;54.176;12.102;2024-03-25T01:46:41;12.80;;;5.83;;
36551;SDS011;22559;54.176;12.102;2024-03-25T01:49:08;10.53;;;5.37;;
36551;SDS011;22559;54.176;12.102;2024-03-25T01:51:33;13.13;;;5.80;;
36551;SDS011;22559;54.176;12.102;2024-03-25T01:54:00;12.57;;;6.10;;
36551;SDS011;22559;54.176;12.102;2024-03-25T01:56:27;14.77;;;6.50;;
36551;SDS011;22559;54.176;12.102;2024-03-25T01:58:57;15.43;;;5.83;;
36551;SDS011;22559;54.176;12.102;2024-03-25T02:01:24;12.50;;;6.10;;
36551;SDS011;22559;54.176;12.102;2024-03-25T02:03:50;11.80;;;6.43;;
36551;SDS011;22559;54.176;12.102;2024-03-25T02:06:16;13.20;;;6.30;;
36551;SDS011;22559;54.176;12.102;2024-03-25T02:08:44;15.37;;;6.03;;
36551;SDS011;22559;54.176;12.102;2024-03-25T02:11:10;18.77;;;6.80;;
36551;SDS011;22559;54.176;12.102;2024-03-25T02:13:37;15.73;;;7.07;;
36551;SDS011;22559;54.176;12.102;2024-03-25T02:16:06;15.93;;;7.23;;
36551;SDS011;22559;54.176;12.102;2024-03-25T02:18:31;14.53;;;6.47;;
36551;SDS011;22559;54.176;12.102;2024-03-25T02:20:57;12.20;;;6.30;;
36551;SDS011;22559;54.176;12.102;2024-03-25T02:23:23;13.63;;;7.27;;
36551;SDS011;22559;54.176;12.102;2024-03-25T02:25:50;17.37;;;7.40;;
36551;SDS011;22559;54.176;12.102;2024-03-25T02:28:16;19.27;;;7.80;;
36551;SDS011;22559;54.176;12.102;2024-03-25T02:30:42;16.70;;;7.73;;
36551;SDS011;22559;54.176;12.102;2024-03-25T02:33:08;18.27;;;8.30;;
36551;SDS011;22559;54.176;12.102;2024-03-25T02:35:34;21.33;;;9.20;;
36551;SDS011;22559;54.176;12.102;2024-03-25T02:38:01;21.10;;;8.47;;
36551;SDS011;22559;54.176;12.102;2024-03-25T02:40:28;24.17;;;9.93;;
36551;SDS011;22559;54.176;12.102;2024-03-25T02:42:54;19.10;;;9.20;;
36551;SDS011;22559;54.176;12.102;2024-03-25T02:45:20;22.47;;;10.93;;
36551;SDS011;22559;54.176;12.102;2024-03-25T02:47:46;29.17;;;11.20;;
36551;SDS011;22559;54.176;12.102;2024-03-25T02:50:12;23.73;;;10.53;;
36551;SDS011;22559;54.176;12.102;2024-03-25T02:52:38;20.43;;;10.53;;
36551;SDS011;22559;54.176;12.102;2024-03-25T02:55:04;25.73;;;10.27;;
36551;SDS011;22559;54.176;12.102;2024-03-25T02:57:30;29.07;;;11.30;;
36551;SDS011;22559;54.176;12.102;2024-03-25T02:59:55;23.30;;;11.03;;
36551;SDS011;22559;54.176;12.102;2024-03-25T03:02:21;23.87;;;10.33;;
36551;SDS011;22559;54.176;12.102;2024-03-25T03:04:47;24.63;;;9.90;;
36551;SDS011;22559;54.176;12.102;2024-03-25T03:07:12;22.53;;;11.13;;
36551;SDS011;22559;54.176;12.102;2024-03-25T03:09:38;25.03;;;9.87;;
36551;SDS011;22559;54.176;12.102;2024-03-25T03:12:03;25.13;;;10.97;;
36551;SDS011;22559;54.176;12.102;2024-03-25T03:14:29;27.10;;;11.07;;
36551;SDS011;22559;54.176;12.102;2024-03-25T03:16:55;21.83;;;9.83;;
36551;SDS011;22559;54.176;12.102;2024-03-25T03:19:24;25.10;;;10.17;;
36551;SDS011;22559;54.176;12.102;2024-03-25T03:21:50;21.83;;;9.33;;
36551;SDS011;22559;54.176;12.102;2024-03-25T03:24:16;23.27;;;10.23;;
36551;SDS011;22559;54.176;12.102;2024-03-25T03:26:43;22.80;;;9.73;;
36551;SDS011;22559;54.176;12.102;2024-03-25T03:29:09;26.13;;;9.93;;
36551;SDS011;22559;54.176;12.102;2024-03-25T03:31:35;24.27;;;10.70;;
36551;SDS011;22559;54.176;12.102;2024-03-25T03:34:01;22.90;;;10.90;;
36551;SDS011;22559;54.176;12.102;2024-03-25T03:36:27;22.20;;;10.90;;
36551;SDS011;22559;54.176;12.102;2024-03-25T03:38:52;21.87;;;9.70;;
36551;SDS011;22559;54.176;12.102;2024-03-25T03:41:19;21.63;;;9.57;;
36551;SDS011;22559;54.176;12.102;2024-03-25T03:43:45;19.90;;;10.47;;
36551;SDS011;22559;54.176;12.102;2024-03-25T03:46:10;24.60;;;10.17;;
36551;SDS011;22559;54.176;12.102;2024-03-25T03:48:36;22.60;;;10.07;;
36551;SDS011;22559;54.176;12.102;2024-03-25T03:51:03;23.97;;;10.33;;
36551;SDS011;22559;54.176;12.102;2024-03-25T03:53:29;21.10;;;9.60;;
36551;SDS011;22559;54.176;12.102;2024-03-25T03:55:58;20.17;;;9.57;;
36551;SDS011;22559;54.176;12.102;2024-03-25T03:58:25;23.40;;;10.07;;
36551;SDS011;22559;54.176;12.102;2024-03-25T04:00:51;23.83;;;11.20;;
36551;SDS011;22559;54.176;12.102;2024-03-25T04:03:17;26.60;;;11.97;;
36551;SDS011;22559;54.176;12.102;2024-03-25T04:05:43;28.33;;;11.13;;
36551;SDS011;22559;54.176;12.102;2024-03-25T04:08:09;32.03;;;11.93;;
36551;SDS011;22559;54.176;12.102;2024-03-25T04:10:35;30.80;;;11.77;;
36551;SDS011;22559;54.176;12.102;2024-03-25T04:13:05;36.80;;;11.40;;
36551;SDS011;22559;54.176;12.102;2024-03-25T04:15:33;35.10;;;12.23;;
36551;SDS011;22559;54.176;12.102;2024-03-25T04:17:59;29.37;;;10.07;;
36551;SDS011;22559;54.176;12.102;2024-03-25T04:20:26;34.30;;;10.77;;
36551;SDS011;22559;54.176;12.102;2024-03-25T04:22:52;33.63;;;11.67;;
36551;SDS011;22559;54.176;12.102;2024-03-25T04:25:18;34.40;;;11.97;;
36551;SDS011;22559;54.176;12.102;2024-03-25T04:27:44;37.00;;;14.13;;
36551;SDS011;22559;54.176;12.102;2024-03-25T04:30:10;35.53;;;13.43;;
36551;SDS011;22559;54.176;12.102;2024-03-25T04:32:39;43.53;;;14.27;;
36551;SDS011;22559;54.176;12.102;2024-03-25T04:35:05;37.67;;;15.07;;
36551;SDS011;22559;54.176;12.102;2024-03-25T04:37:32;49.40;;;15.13;;
36551;SDS011;22559;54.176;12.102;2024-03-25T04:39:58;44.50;;;15.57;;
36551;SDS011;22559;54.176;12.102;2024-03-25T04:42:24;41.60;;;16.23;;
36551;SDS011;22559;54.176;12.102;2024-03-25T04:44:49;49.07;;;15.27;;
36551;SDS011;22559;54.176;12.102;2024-03-25T04:47:19;48.10;;;15.47;;
36551;SDS011;22559;54.176;12.102;2024-03-25T04:49:45;46.87;;;16.07;;
36551;SDS011;22559;54.176;12.102;2024-03-25T04:52:13;52.23;;;17.37;;
36551;SDS011;22559;54.176;12.102;2024-03-25T04:54:44;47.13;;;16.77;;
36551;SDS011;22559;54.176;12.102;2024-03-25T04:57:09;56.67;;;19.47;;
36551;SDS011;22559;54.176;12.102;2024-03-25T04:59:35;52.53;;;18.60;;
36551;SDS011;22559;54.176;12.102;2024-03-25T05:02:01;44.93;;;16.63;;
36551;SDS011;22559;54.176;12.102;2024-03-25T05:04:26;39.10;;;16.97;;
36551;SDS011;22559;54.176;12.102;2024-03-25T05:06:52;36.73;;;13.47;;
36551;SDS011;22559;54.176;12.102;2024-03-25T05:09:18;29.43;;;14.00;;
36551;SDS011;22559;54.176;12.102;2024-03-25T05:11:43;33.33;;;13.00;;
36551;SDS011;22559;54.176;12.102;2024-03-25T05:14:09;32.70;;;13.67;;
36551;SDS011;22559;54.176;12.102;2024-03-25T05:16:35;31.17;;;12.70;;
36551;SDS011;22559;54.176;12.102;2024-03-25T05:19:01;33.33;;;14.40;;
36551;SDS011;22559;54.176;12.102;2024-03-25T05:21:27;41.97;;;14.17;;
36551;SDS011;22559;54.176;12.102;2024-03-25T05:23:53;35.70;;;14.33;;
36551;SDS011;22559;54.176;12.102;2024-03-25T05:26:19;34.40;;;15.87;;
36551;SDS011;22559;54.176;12.102;2024-03-25T05:28:44;37.23;;;16.13;;
36551;SDS011;22559;54.176;12.102;2024-03-25T05:31:10;38.87;;;17.13;;
36551;SDS011;22559;54.176;12.102;2024-03-25T05:33:35;43.67;;;16.53;;
36551;SDS011;22559;54.176;12.102;2024-03-25T05:36:02;56.50;;;28.17;;
36551;SDS011;22559;54.176;12.102;2024-03-25T05:38:28;41.73;;;17.33;;
36551;SDS011;22559;54.176;12.102;2024-03-25T05:40:54;43.27;;;17.57;;
36551;SDS011;22559;54.176;12.102;2024-03-25T05:43:20;39.87;;;16.60;;
36551;SDS011;22559;54.176;12.102;2024-03-25T05:45:52;45.20;;;16.97;;
36551;SDS011;22559;54.176;12.102;2024-03-25T05:48:24;37.80;;;16.07;;
36551;SDS011;22559;54.176;12.102;2024-03-25T05:53:30;30.83;;;14.93;;
36551;SDS011;22559;54.176;12.102;2024-03-25T05:55:56;34.03;;;13.77;;
36551;SDS011;22559;54.176;12.102;2024-03-25T05:58:24;32.17;;;13.87;;
36551;SDS011;22559;54.176;12.102;2024-03-25T06:00:50;37.70;;;14.83;;
36551;SDS011;22559;54.176;12.102;2024-03-25T06:03:16;31.63;;;15.17;;
36551;SDS011;22559;54.176;12.102;2024-03-25T06:05:44;38.77;;;16.30;;
36551;SDS011;22559;54.176;12.102;2024-03-25T06:08:10;36.67;;;14.37;;
36551;SDS011;22559;54.176;12.102;2024-03-25T06:10:51;31.70;;;13.23;;
36551;SDS011;22559;54.176;12.102;2024-03-25T06:13:17;32.60;;;13.23;;
36551;SDS011;22559;54.176;12.102;2024-03-25T06:15:43;26.87;;;12.40;;
36551;SDS011;22559;54.176;12.102;2024-03-25T06:18:09;29.67;;;12.63;;
36551;SDS011;22559;54.176;12.102;2024-03-25T06:20:35;30.20;;;12.40;;
36551;SDS011;22559;54.176;12.102;2024-03-25T06:23:00;32.90;;;12.93;;
36551;SDS011;22559;54.176;12.102;2024-03-25T06:25:26;31.67;;;12.60;;
36551;SDS011;22559;54.176;12.102;2024-03-25T06:27:52;29.07;;;12.13;;
36551;SDS011;22559;54.176;12.102;2024-03-25T06:30:21;26.20;;;11.13;;
36551;SDS011;22559;54.176;12.102;2024-03-25T06:33:05;27.07;;;11.23;;
36551;SDS011;22559;54.176;12.102;2024-03-25T06:35:49;27.30;;;11.60;;
36551;SDS011;22559;54.176;12.102;2024-03-25T06:38:17;30.70;;;10.27;;
36551;SDS011;22559;54.176;12.102;2024-03-25T06:40:42;24.80;;;11.37;;
36551;SDS011;22559;54.176;12.102;2024-03-25T06:43:10;26.50;;;9.97;;
36551;SDS011;22559;54.176;12.102;2024-03-25T06:45:35;19.93;;;9.83;;
36551;SDS011;22559;54.176;12.102;2024-03-25T06:48:01;21.50;;;9.83;;
36551;SDS011;22559;54.176;12.102;2024-03-25T06:50:26;21.23;;;8.63;;
36551;SDS011;22559;54.176;12.102;2024-03-25T06:52:52;18.03;;;8.87;;
36551;SDS011;22559;54.176;12.102;2024-03-25T06:55:18;12.17;;;6.77;;
36551;SDS011;22559;54.176;12.102;2024-03-25T06:57:47;11.73;;;7.03;;
36551;SDS011;22559;54.176;12.102;2024-03-25T07:00:16;12.07;;;6.57;;
36551;SDS011;22559;54.176;12.102;2024-03-25T07:02:42;12.27;;;6.10;;
36551;SDS011;22559;54.176;12.102;2024-03-25T07:05:07;13.43;;;5.90;;
36551;SDS011;22559;54.176;12.102;2024-03-25T07:07:33;10.13;;;5.77;;
36551;SDS011;22559;54.176;12.102;2024-03-25T07:09:59;12.67;;;6.07;;
36551;SDS011;22559;54.176;12.102;2024-03-25T07:12:26;10.03;;;5.43;;
36551;SDS011;22559;54.176;12.102;2024-03-25T07:14:51;8.23;;;5.83;;
36551;SDS011;22559;54.176;12.102;2024-03-25T07:17:17;13.90;;;5.87;;
36551;SDS011;22559;54.176;12.102;2024-03-25T07:19:42;10.27;;;5.83;;
36551;SDS011;22559;54.176;12.102;2024-03-25T07:22:09;14.77;;;5.80;;
36551;SDS011;22559;54.176;12.102;2024-03-25T07:24:35;15.03;;;6.23;;
36551;SDS011;22559;54.176;12.102;2024-03-25T07:27:01;13.87;;;5.60;;
36551;SDS011;22559;54.176;12.102;2024-03-25T07:29:26;16.70;;;6.50;;
36551;SDS011;22559;54.176;12.102;2024-03-25T07:31:52;11.80;;;6.70;;
36551;SDS011;22559;54.176;12.102;2024-03-25T07:34:18;16.20;;;6.90;;
36551;SDS011;22559;54.176;12.102;2024-03-25T07:36:44;16.43;;;7.73;;
36551;SDS011;22559;54.176;12.102;2024-03-25T07:39:09;18.13;;;7.80;;
36551;SDS011;22559;54.176;12.102;2024-03-25T07:41:38;16.40;;;7.70;;
36551;SDS011;22559;54.176;12.102;2024-03-25T07:44:03;15.67;;;7.03;;
36551;SDS011;22559;54.176;12.102;2024-03-25T07:46:29;14.30;;;7.40;;
36551;SDS011;22559;54.176;12.102;2024-03-25T07:48:55;16.73;;;7.27;;
36551;SDS011;22559;54.176;12.102;2024-03-25T07:51:21;18.87;;;7.97;;
36551;SDS011;22559;54.176;12.102;2024-03-25T07:53:47;19.03;;;8.17;;
36551;SDS011;22559;54.176;12.102;2024-03-25T07:56:12;15.60;;;7.43;;
36551;SDS011;22559;54.176;12.102;2024-03-25T07:58:40;13.07;;;7.13;;
36551;SDS011;22559;54.176;12.102;2024-03-25T08:01:06;12.63;;;6.27;;
36551;SDS011;22559;54.176;12.102;2024-03-25T08:03:31;13.00;;;6.07;;
36551;SDS011;22559;54.176;12.102;2024-03-25T08:05:57;19.30;;;6.43;;
36551;SDS011;22559;54.176;12.102;2024-03-25T08:08:23;15.17;;;6.60;;
36551;SDS011;22559;54.176;12.102;2024-03-25T08:10:48;10.03;;;5.57;;
36551;SDS011;22559;54.176;12.102;2024-03-25T08:13:14;9.90;;;5.23;;
36551;SDS011;22559;54.176;12.102;2024-03-25T08:15:39;15.07;;;5.37;;
36551;SDS011;22559;54.176;12.102;2024-03-25T08:18:06;10.57;;;4.80;;
36551;SDS011;22559;54.176;12.102;2024-03-25T08:20:32;10.50;;;4.77;;
36551;SDS011;22559;54.176;12.102;2024-03-25T08:22:57;11.07;;;4.40;;
36551;SDS011;22559;54.176;12.102;2024-03-25T08:25:23;10.30;;;5.50;;
36551;SDS011;22559;54.176;12.102;2024-03-25T08:27:49;9.03;;;4.53;;
36551;SDS011;22559;54.176;12.102;2024-03-25T08:30:14;12.60;;;4.83;;
36551;SDS011;22559;54.176;12.102;2024-03-25T08:32:40;8.67;;;4.90;;
36551;SDS011;22559;54.176;12.102;2024-03-25T08:35:05;7.50;;;4.63;;
36551;SDS011;22559;54.176;12.102;2024-03-25T08:37:31;9.93;;;4.80;;
36551;SDS011;22559;54.176;12.102;2024-03-25T08:39:57;9.30;;;4.50;;
36551;SDS011;22559;54.176;12.102;2024-03-25T08:42:22;10.43;;;4.43;;
36551;SDS011;22559;54.176;12.102;2024-03-25T08:44:48;6.43;;;4.03;;
36551;SDS011;22559;54.176;12.102;2024-03-25T08:47:14;6.57;;;4.23;;
36551;SDS011;22559;54.176;12.102;2024-03-25T08:49:39;10.17;;;4.63;;
36551;SDS011;22559;54.176;12.102;2024-03-25T08:52:05;8.80;;;4.23;;
36551;SDS011;22559;54.176;12.102;2024-03-25T08:54:30;10.63;;;4.70;;
36551;SDS011;22559;54.176;12.102;2024-03-25T08:56:56;8.57;;;4.77;;
36551;SDS011;22559;54.176;12.102;2024-03-25T08:59:22;9.50;;;4.73;;
36551;SDS011;22559;54.176;12.102;2024-03-25T09:01:47;7.97;;;4.87;;
36551;SDS011;22559;54.176;12.102;2024-03-25T09:04:13;9.20;;;4.17;;
36551;SDS011;22559;54.176;12.102;2024-03-25T09:06:39;6.37;;;3.63;;
36551;SDS011;22559;54.176;12.102;2024-03-25T09:11:32;5.30;;;3.87;;
36551;SDS011;22559;54.176;12.102;2024-03-25T09:13:58;5.40;;;3.63;;
36551;SDS011;22559;54.176;12.102;2024-03-25T09:16:24;8.63;;;3.67;;
36551;SDS011;22559;54.176;12.102;2024-03-25T09:18:49;4.80;;;3.67;;
36551;SDS011;22559;54.176;12.102;2024-03-25T09:21:15;6.90;;;4.00;;
36551;SDS011;22559;54.176;12.102;2024-03-25T09:23:40;7.80;;;3.77;;
36551;SDS011;22559;54.176;12.102;2024-03-25T09:26:06;9.47;;;4.00;;
36551;SDS011;22559;54.176;12.102;2024-03-25T09:28:32;7.73;;;4.07;;
36551;SDS011;22559;54.176;12.102;2024-03-25T09:30:57;6.40;;;3.83;;
36551;SDS011;22559;54.176;12.102;2024-03-25T09:33:23;5.53;;;3.50;;
36551;SDS011;22559;54.176;12.102;2024-03-25T09:35:49;9.00;;;4.27;;
36551;SDS011;22559;54.176;12.102;2024-03-25T09:38:14;7.93;;;4.00;;
36551;SDS011;22559;54.176;12.102;2024-03-25T09:40:40;7.13;;;3.37;;
36551;SDS011;22559;54.176;12.102;2024-03-25T09:43:08;7.10;;;3.60;;
36551;SDS011;22559;54.176;12.102;2024-03-25T09:45:48;5.77;;;3.50;;
36551;SDS011;22559;54.176;12.102;2024-03-25T09:48:15;7.00;;;4.00;;
36551;SDS011;22559;54.176;12.102;2024-03-25T09:50:43;6.90;;;3.60;;
36551;SDS011;22559;54.176;12.102;2024-03-25T09:53:10;7.33;;;3.50;;
36551;SDS011;22559;54.176;12.102;2024-03-25T09:55:35;8.63;;;4.30;;
36551;SDS011;22559;54.176;12.102;2024-03-25T09:58:02;5.10;;;3.53;;
36551;SDS011;22559;54.176;12.102;2024-03-25T10:00:28;6.00;;;3.33;;
36551;SDS011;22559;54.176;12.102;2024-03-25T10:02:55;8.20;;;4.03;;
36551;SDS011;22559;54.176;12.102;2024-03-25T10:05:20;4.43;;;3.70;;
36551;SDS011;22559;54.176;12.102;2024-03-25T10:07:46;6.27;;;3.03;;
36551;SDS011;22559;54.176;12.102;2024-03-25T10:10:12;4.80;;;2.67;;
36551;SDS011;22559;54.176;12.102;2024-03-25T10:12:38;4.30;;;2.40;;
36551;SDS011;22559;54.176;12.102;2024-03-25T10:15:03;3.07;;;2.30;;
36551;SDS011;22559;54.176;12.102;2024-03-25T10:17:30;3.47;;;2.30;;
36551;SDS011;22559;54.176;12.102;2024-03-25T10:19:56;2.30;;;2.10;;
36551;SDS011;22559;54.176;12.102;2024-03-25T10:22:22;2.53;;;1.93;;
36551;SDS011;22559;54.176;12.102;2024-03-25T10:24:48;2.67;;;1.80;;
36551;SDS011;22559;54.176;12.102;2024-03-25T10:27:17;4.50;;;2.57;;
36551;SDS011;22559;54.176;12.102;2024-03-25T10:29:47;5.40;;;2.17;;
36551;SDS011;22559;54.176;12.102;2024-03-25T10:32:13;3.97;;;2.20;;
36551;SDS011;22559;54.176;12.102;2024-03-25T10:34:39;4.33;;;2.10;;
36551;SDS011;22559;54.176;12.102;2024-03-25T10:37:07;3.07;;;2.17;;
36551;SDS011;22559;54.176;12.102;2024-03-25T10:39:35;4.23;;;2.10;;
36551;SDS011;22559;54.176;12.102;2024-03-25T10:42:08;4.37;;;2.10;;
36551;SDS011;22559;54.176;12.102;2024-03-25T10:44:38;2.77;;;2.10;;
36551;SDS011;22559;54.176;12.102;2024-03-25T10:47:05;3.87;;;1.87;;
36551;SDS011;22559;54.176;12.102;2024-03-25T10:49:48;2.90;;;2.23;;
36551;SDS011;22559;54.176;12.102;2024-03-25T10:52:16;3.10;;;2.37;;
36551;SDS011;22559;54.176;12.102;2024-03-25T10:54:44;4.53;;;2.20;;
36551;SDS011;22559;54.176;12.102;2024-03-25T10:57:12;2.93;;;1.87;;
36551;SDS011;22559;54.176;12.102;2024-03-25T10:59:38;4.20;;;1.70;;
36551;SDS011;22559;54.176;12.102;2024-03-25T11:02:09;2.93;;;1.80;;
36551;SDS011;22559;54.176;12.102;2024-03-25T11:04:36;1.80;;;1.60;;
36551;SDS011;22559;54.176;12.102;2024-03-25T11:07:12;3.13;;;1.70;;
36551;SDS011;22559;54.176;12.102;2024-03-25T11:09:39;2.97;;;1.80;;
36551;SDS011;22559;54.176;12.102;2024-03-25T11:12:05;3.60;;;1.80;;
36551;SDS011;22559;54.176;12.102;2024-03-25T11:14:31;2.10;;;1.90;;
36551;SDS011;22559;54.176;12.102;2024-03-25T11:16:59;5.07;;;2.30;;
36551;SDS011;22559;54.176;12.102;2024-03-25T11:19:25;4.43;;;3.20;;
36551;SDS011;22559;54.176;12.102;2024-03-25T11:21:52;2.60;;;1.87;;
36551;SDS011;22559;54.176;12.102;2024-03-25T11:24:27;2.47;;;2.27;;
36551;SDS011;22559;54.176;12.102;2024-03-25T11:26:54;2.70;;;2.03;;
36551;SDS011;22559;54.176;12.102;2024-03-25T11:29:20;2.17;;;1.93;;
36551;SDS011;22559;54.176;12.102;2024-03-25T11:31:46;2.63;;;2.33;;
36551;SDS011;22559;54.176;12.102;2024-03-25T11:34:14;1.93;;;1.80;;
36551;SDS011;22559;54.176;12.102;2024-03-25T11:36:40;1.77;;;1.67;;
36551;SDS011;22559;54.176;12.102;2024-03-25T11:39:06;2.43;;;1.93;;
36551;SDS011;22559;54.176;12.102;2024-03-25T11:41:41;3.47;;;1.80;;
36551;SDS011;22559;54.176;12.102;2024-03-25T11:44:08;3.07;;;2.00;;
36551;SDS011;22559;54.176;12.102;2024-03-25T11:46:37;2.47;;;2.13;;
36551;SDS011;22559;54.176;12.102;2024-03-25T11:49:06;3.53;;;2.00;;
36551;SDS011;22559;54.176;12.102;2024-03-25T11:51:34;3.10;;;2.17;;
36551;SDS011;22559;54.176;12.102;2024-03-25T11:54:03;2.27;;;1.80;;
36551;SDS011;22559;54.176;12.102;2024-03-25T11:56:29;3.73;;;1.90;;
36551;SDS011;22559;54.176;12.102;2024-03-25T11:58:56;2.33;;;2.10;;
36551;SDS011;22559;54.176;12.102;2024-03-25T12:01:22;2.47;;;2.27;;
36551;SDS011;22559;54.176;12.102;2024-03-25T12:03:48;3.83;;;2.03;;
36551;SDS011;22559;54.176;12.102;2024-03-25T12:06:13;3.10;;;2.13;;
36551;SDS011;22559;54.176;12.102;2024-03-25T12:08:39;3.10;;;1.67;;
36551;SDS011;22559;54.176;12.102;2024-03-25T12:11:25;4.60;;;1.80;;
36551;SDS011;22559;54.176;12.102;2024-03-25T12:13:50;4.93;;;1.67;;
36551;SDS011;22559;54.176;12.102;2024-03-25T12:16:16;1.53;;;1.43;;
36551;SDS011;22559;54.176;12.102;2024-03-25T12:18:42;2.63;;;2.00;;
36551;SDS011;22559;54.176;12.102;2024-03-25T12:21:09;3.97;;;3.10;;
36551;SDS011;22559;54.176;12.102;2024-03-25T12:23:35;3.83;;;2.63;;
36551;SDS011;22559;54.176;12.102;2024-03-25T12:26:02;3.13;;;1.90;;
36551;SDS011;22559;54.176;12.102;2024-03-25T12:28:30;3.17;;;1.77;;
36551;SDS011;22559;54.176;12.102;2024-03-25T12:30:56;2.27;;;1.77;;
36551;SDS011;22559;54.176;12.102;2024-03-25T12:33:22;1.83;;;1.73;;
36551;SDS011;22559;54.176;12.102;2024-03-25T12:35:49;1.70;;;1.60;;
36551;SDS011;22559;54.176;12.102;2024-03-25T12:38:25;2.57;;;1.80;;
36551;SDS011;22559;54.176;12.102;2024-03-25T12:40:52;2.27;;;1.70;;
36551;SDS011;22559;54.176;12.102;2024-03-25T12:43:18;3.33;;;1.70;;
36551;SDS011;22559;54.176;12.102;2024-03-25T12:45:44;3.17;;;1.77;;
36551;SDS011;22559;54.176;12.102;2024-03-25T12:48:10;1.60;;;1.50;;
36551;SDS011;22559;54.176;12.102;2024-03-25T12:50:36;1.50;;;1.40;;
36551;SDS011;22559;54.176;12.102;2024-03-25T12:53:02;2.93;;;1.80;;
36551;SDS011;22559;54.176;12.102;2024-03-25T12:55:31;3.37;;;1.70;;
36551;SDS011;22559;54.176;12.102;2024-03-25T12:57:57;3.23;;;1.60;;
36551;SDS011;22559;54.176;12.102;2024-03-25T13:00:23;2.47;;;1.80;;
36551;SDS011;22559;54.176;12.102;2024-03-25T13:02:48;2.60;;;1.77;;
36551;SDS011;22559;54.176;12.102;2024-03-25T13:05:15;1.87;;;1.50;;
36551;SDS011;22559;54.176;12.102;2024-03-25T13:07:40;3.23;;;1.80;;
36551;SDS011;22559;54.176;12.102;2024-03-25T13:10:06;3.07;;;1.90;;
36551;SDS011;22559;54.176;12.102;2024-03-25T13:12:32;1.97;;;1.60;;
36551;SDS011;22559;54.176;12.102;2024-03-25T13:14:58;2.07;;;1.63;;
36551;SDS011;22559;54.176;12.102;2024-03-25T13:17:24;1.53;;;1.43;;
36551;SDS011;22559;54.176;12.102;2024-03-25T13:19:50;2.23;;;1.40;;
36551;SDS011;22559;54.176;12.102;2024-03-25T13:22:15;1.87;;;1.60;;
36551;SDS011;22559;54.176;12.102;2024-03-25T13:24:41;2.87;;;1.57;;
36551;SDS011;22559;54.176;12.102;2024-03-25T13:27:07;3.93;;;2.00;;
36551;SDS011;22559;54.176;12.102;2024-03-25T13:29:33;4.30;;;1.50;;
36551;SDS011;22559;54.176;12.102;2024-03-25T13:32:01;2.87;;;1.70;;
36551;SDS011;22559;54.176;12.102;2024-03-25T13:34:27;3.83;;;1.73;;
36551;SDS011;22559;54.176;12.102;2024-03-25T13:36:53;2.57;;;1.70;;
36551;SDS011;22559;54.176;12.102;2024-03-25T13:39:18;1.40;;;1.30;;
36551;SDS011;22559;54.176;12.102;2024-03-25T13:41:44;1.93;;;1.40;;
36551;SDS011;22559;54.176;12.102;2024-03-25T13:44:10;3.53;;;1.50;;
36551;SDS011;22559;54.176;12.102;2024-03-25T13:46:36;1.60;;;1.27;;
36551;SDS011;22559;54.176;12.102;2024-03-25T13:49:02;3.43;;;1.67;;
36551;SDS011;22559;54.176;12.102;2024-03-25T13:51:27;2.40;;;1.50;;
36551;SDS011;22559;54.176;12.102;2024-03-25T13:53:53;3.00;;;1.70;;
36551;SDS011;22559;54.176;12.102;2024-03-25T13:56:19;2.40;;;1.27;;
36551;SDS011;22559;54.176;12.102;2024-03-25T13:58:44;2.27;;;1.60;;
36551;SDS011;22559;54.176;12.102;2024-03-25T14:01:10;4.17;;;1.40;;
36551;SDS011;22559;54.176;12.102;2024-03-25T14:03:36;2.57;;;1.30;;
36551;SDS011;22559;54.176;12.102;2024-03-25T14:06:01;2.17;;;1.57;;
36551;SDS011;22559;54.176;12.102;2024-03-25T14:08:27;4.47;;;1.87;;
36551;SDS011;22559;54.176;12.102;2024-03-25T14:10:56;2.20;;;1.40;;
36551;SDS011;22559;54.176;12.102;2024-03-25T14:13:23;2.10;;;1.40;;
36551;SDS011;22559;54.176;12.102;2024-03-25T14:15:49;3.73;;;1.93;;
36551;SDS011;22559;54.176;12.102;2024-03-25T14:18:15;2.73;;;2.03;;
36551;SDS011;22559;54.176;12.102;2024-03-25T14:20:41;4.10;;;2.13;;
36551;SDS011;22559;54.176;12.102;2024-03-25T14:23:07;1.93;;;1.60;;
36551;SDS011;22559;54.176;12.102;2024-03-25T14:25:33;4.87;;;1.60;;